createdAt,value
2023-02-24T00:04:52.097Z,8.83
2023-02-24T00:09:54.882Z,6.90
2023-02-24T00:14:57.906Z,9.00
2023-02-24T00:20:00.920Z,8.70
2023-02-24T00:25:04.178Z,9.80
2023-02-24T00:30:08.156Z,9.10
2023-02-24T00:35:10.974Z,8.85
2023-02-24T00:40:13.996Z,6.80
2023-02-24T00:45:17.087Z,8.80
2023-02-24T00:50:20.016Z,8.85
2023-02-24T00:55:23.487Z,7.50
2023-02-24T01:00:26.542Z,5.70
2023-02-24T01:05:29.600Z,6.47
2023-02-24T01:10:34.681Z,7.53
2023-02-24T01:15:37.432Z,7.90
2023-02-24T01:20:40.374Z,8.10
2023-02-24T01:25:48.037Z,8.10
2023-02-24T01:30:50.859Z,7.97
2023-02-24T01:35:55.695Z,7.03
2023-02-24T01:41:05.228Z,7.25
2023-02-24T01:46:13.863Z,6.60
2023-02-24T01:51:18.135Z,7.47
2023-02-24T01:56:21.239Z,7.60
2023-02-24T02:01:24.547Z,6.20
2023-02-24T02:06:28.861Z,7.75
2023-02-24T02:11:31.518Z,7.67
2023-02-24T02:16:46.970Z,7.63
2023-02-24T02:22:06.004Z,7.47
2023-02-24T02:27:29.631Z,6.40
2023-02-24T02:32:35.086Z,4.93
2023-02-24T02:37:47.808Z,6.63
2023-02-24T02:43:14.461Z,5.97
2023-02-24T02:48:34.759Z,7.00
2023-02-24T02:53:49.681Z,6.33
2023-02-24T02:58:57.001Z,4.95
2023-02-24T03:04:05.168Z,5.30
2023-02-24T03:09:16.291Z,5.65
2023-02-24T03:14:24.579Z,5.15
2023-02-24T03:19:32.378Z,3.70
2023-02-24T03:24:39.176Z,3.55
2023-02-24T03:30:02.320Z,2.80
2023-02-24T03:35:17.292Z,4.63
2023-02-24T03:40:21.988Z,4.03
2023-02-24T03:45:28.180Z,3.80
2023-02-24T03:50:34.616Z,4.80
2023-02-24T03:56:03.788Z,4.00
2023-02-24T04:01:42.391Z,3.88
2023-02-24T04:07:14.095Z,5.22
2023-02-24T04:12:37.237Z,5.87
2023-02-24T04:18:01.618Z,5.50
2023-02-24T04:23:17.312Z,5.07
2023-02-24T04:28:24.660Z,6.22
2023-02-24T04:33:28.441Z,6.40
2023-02-24T04:38:31.884Z,5.20
2023-02-24T04:43:36.151Z,6.22
2023-02-24T04:48:39.366Z,6.10
2023-02-24T04:53:42.300Z,6.82
2023-02-24T04:58:46.617Z,5.25
2023-02-24T05:03:49.393Z,5.90
2023-02-24T05:08:52.636Z,5.97
2023-02-24T05:13:55.329Z,6.27
2023-02-24T05:19:16.347Z,5.35
2023-02-24T05:24:19.313Z,5.65
2023-02-24T05:29:21.983Z,5.30
2023-02-24T05:34:24.845Z,5.80
2023-02-24T05:39:28.612Z,5.57
2023-02-24T05:44:32.030Z,6.20
2023-02-24T05:49:35.994Z,6.10
2023-02-24T05:54:41.665Z,6.47
2023-02-24T05:59:44.967Z,6.20
2023-02-24T06:04:51.568Z,5.60
2023-02-24T06:09:57.678Z,5.18
2023-02-24T06:15:01.194Z,5.95
2023-02-24T06:20:15.797Z,4.90
2023-02-24T06:25:18.854Z,4.95
2023-02-24T06:30:27.296Z,4.40
2023-02-24T06:35:30.431Z,4.78
2023-02-24T06:40:33.267Z,5.47
2023-02-24T06:45:36.242Z,5.33
2023-02-24T06:50:42.130Z,5.40
2023-02-24T06:55:49.172Z,4.90
2023-02-24T07:00:57.682Z,4.78
2023-02-24T07:06:20.688Z,5.97
2023-02-24T07:11:24.322Z,5.13
2023-02-24T07:16:29.396Z,4.30
2023-02-24T07:21:39.850Z,4.53
2023-02-24T07:26:44.018Z,4.63
2023-02-24T07:31:49.078Z,5.85
2023-02-24T07:36:55.846Z,4.17
2023-02-24T07:41:59.706Z,4.45
2023-02-24T07:47:08.172Z,5.97
2023-02-24T07:52:11.852Z,4.50
2023-02-24T07:57:14.825Z,3.50
2023-02-24T08:02:18.641Z,4.93
2023-02-24T08:07:25.595Z,4.32
2023-02-24T08:12:30.528Z,3.53
2023-02-24T08:17:33.618Z,3.90
2023-02-24T08:22:37.701Z,4.10
2023-02-24T08:27:43.121Z,3.63
2023-02-24T08:32:47.140Z,3.22
2023-02-24T08:37:53.724Z,3.67
2023-02-24T08:43:00.363Z,3.08
2023-02-24T08:48:18.482Z,3.17
2023-02-24T08:53:22.714Z,3.60
2023-02-24T08:58:28.557Z,3.65
2023-02-24T09:03:34.059Z,3.23
2023-02-24T09:08:39.551Z,3.55
2023-02-24T09:13:52.409Z,2.97
2023-02-24T09:19:13.743Z,4.27
2023-02-24T09:24:27.493Z,3.97
2023-02-24T09:29:36.124Z,4.53
2023-02-24T09:34:44.316Z,4.60
2023-02-24T09:39:58.828Z,4.82
2023-02-24T09:45:05.237Z,3.87
2023-02-24T09:50:14.433Z,4.47
2023-02-24T09:55:46.182Z,5.03
2023-02-24T10:01:21.394Z,4.40
2023-02-24T10:06:35.483Z,4.55
2023-02-24T10:11:53.952Z,5.30
2023-02-24T10:17:16.064Z,5.00
2023-02-24T10:22:28.081Z,3.73
2023-02-24T10:27:53.327Z,3.83
2023-02-24T10:33:00.588Z,4.63
2023-02-24T10:38:06.586Z,5.50
2023-02-24T10:43:10.986Z,4.45
2023-02-24T10:48:40.790Z,4.10
2023-02-24T10:53:53.363Z,3.88
2023-02-24T10:59:25.548Z,5.03
2023-02-24T11:04:44.545Z,5.60
2023-02-24T11:09:53.020Z,6.38
2023-02-24T11:15:23.873Z,4.30
2023-02-24T11:20:47.777Z,3.92
2023-02-24T11:26:19.085Z,5.05
2023-02-24T11:39:30.279Z,4.13
2023-02-24T11:44:56.547Z,4.47
2023-02-24T11:50:18.537Z,4.80
2023-02-24T11:55:28.290Z,4.20
2023-02-24T12:00:34.832Z,4.57
2023-02-24T12:05:43.144Z,3.72
2023-02-24T12:10:52.709Z,4.20
2023-02-24T12:16:18.415Z,4.43
2023-02-24T12:21:36.040Z,2.95
2023-02-24T12:27:08.826Z,2.57
2023-02-24T12:32:43.218Z,4.22
2023-02-24T12:38:09.671Z,3.77
2023-02-24T12:43:21.383Z,4.20
2023-02-24T12:48:37.524Z,4.93
2023-02-24T12:53:56.159Z,4.93
2023-02-24T12:59:05.703Z,3.85
2023-02-24T13:04:29.679Z,4.53
2023-02-24T13:09:41.785Z,4.60
2023-02-24T13:14:45.517Z,4.50
2023-02-24T13:19:49.089Z,4.33
2023-02-24T13:24:54.741Z,4.18
2023-02-24T13:30:01.347Z,4.63
2023-02-24T13:35:25.828Z,4.75
2023-02-24T13:40:29.024Z,4.93
2023-02-24T13:45:33.647Z,4.20
2023-02-24T13:51:01.249Z,4.22
2023-02-24T13:56:10.859Z,4.43
2023-02-24T14:01:18.078Z,4.97
2023-02-24T14:06:26.469Z,4.65
2023-02-24T14:11:34.059Z,4.57
2023-02-24T14:16:42.135Z,3.75
2023-02-24T14:21:53.772Z,3.40
2023-02-24T14:26:59.212Z,2.95
2023-02-24T14:32:02.468Z,4.20
2023-02-24T14:37:08.319Z,3.43
2023-02-24T14:42:14.416Z,3.47
2023-02-24T14:47:19.220Z,3.83
2023-02-24T14:52:31.023Z,2.78
2023-02-24T14:58:08.582Z,2.55
2023-02-24T15:03:23.266Z,3.17
2023-02-24T15:08:44.725Z,4.05
2023-02-24T15:13:56.859Z,3.07
2023-02-24T15:19:01.538Z,2.95
2023-02-24T15:24:19.401Z,2.97
2023-02-24T15:29:30.863Z,2.43
2023-02-24T15:34:36.960Z,3.15
2023-02-24T15:39:43.754Z,3.43
2023-02-24T15:45:01.953Z,3.00
2023-02-24T15:50:04.872Z,2.75
2023-02-24T15:55:10.959Z,4.70
2023-02-24T16:00:21.458Z,5.80
2023-02-24T16:05:25.823Z,5.73
2023-02-24T16:10:30.411Z,7.40
2023-02-24T16:15:38.156Z,7.72
2023-02-24T16:20:41.007Z,5.70
2023-02-24T16:25:45.538Z,3.75
2023-02-24T16:30:52.494Z,3.97
2023-02-24T16:35:55.489Z,4.13
2023-02-24T16:40:58.270Z,4.05
2023-02-24T16:46:06.226Z,2.53
2023-02-24T16:51:11.080Z,4.18
2023-02-24T16:56:15.473Z,4.53
2023-02-24T17:01:21.772Z,5.47
2023-02-24T17:06:25.631Z,4.78
2023-02-24T17:11:29.455Z,5.17
2023-02-24T17:16:32.874Z,4.95
2023-02-24T17:21:35.872Z,4.57
2023-02-24T17:26:38.609Z,6.05
2023-02-24T17:31:42.742Z,5.55
2023-02-24T17:36:45.523Z,5.90
2023-02-24T17:41:48.376Z,5.78
2023-02-24T17:46:52.369Z,5.43
2023-02-24T17:51:55.253Z,5.00
2023-02-24T17:56:58.198Z,5.43
2023-02-24T18:02:02.552Z,4.97
2023-02-24T18:07:05.482Z,4.25
2023-02-24T18:12:08.518Z,4.97
2023-02-24T18:17:11.791Z,5.88
2023-02-24T18:22:14.463Z,6.40
2023-02-24T18:27:18.160Z,5.60
2023-02-24T18:32:21.231Z,5.07
2023-02-24T18:37:23.977Z,5.63
2023-02-24T18:42:26.795Z,5.00
2023-02-24T18:47:29.571Z,5.88
2023-02-24T18:52:32.416Z,5.50
2023-02-24T18:57:35.347Z,5.03
2023-02-24T19:02:38.296Z,5.27
2023-02-24T19:07:41.322Z,5.43
2023-02-24T19:12:44.191Z,6.45
2023-02-24T19:17:47.499Z,5.47
2023-02-24T19:22:51.694Z,5.45
2023-02-24T19:27:54.834Z,4.33
2023-02-24T19:32:57.798Z,3.95
2023-02-24T19:38:00.866Z,4.65
2023-02-24T19:43:03.809Z,3.70
2023-02-24T19:48:06.560Z,4.95
2023-02-24T19:53:09.696Z,3.93
2023-02-24T19:58:12.332Z,3.40
2023-02-24T20:03:16.305Z,3.88
2023-02-24T20:08:19.047Z,4.00
2023-02-24T20:13:21.948Z,3.28
2023-02-24T20:18:24.670Z,3.27
2023-02-24T20:23:28.427Z,3.15
2023-02-24T20:28:31.417Z,2.78
2023-02-24T20:33:34.097Z,3.40
2023-02-24T20:38:37.725Z,3.35
2023-02-24T20:43:40.833Z,3.40
2023-02-24T20:48:43.926Z,3.72
2023-02-24T20:53:56.562Z,3.35
2023-02-24T20:59:03.141Z,3.77
2023-02-24T21:04:08.521Z,3.65
2023-02-24T21:09:12.657Z,4.50
2023-02-24T21:14:16.907Z,2.88
2023-02-24T21:19:20.424Z,3.40
2023-02-24T21:24:24.305Z,2.93
2023-02-24T21:29:27.083Z,2.38
2023-02-24T21:34:30.825Z,3.43
2023-02-24T21:39:33.793Z,3.00
2023-02-24T21:44:36.447Z,3.35
2023-02-24T21:49:39.144Z,1.77
2023-02-24T21:54:42.510Z,1.70
2023-02-24T21:59:45.183Z,1.70
2023-02-24T22:04:47.983Z,1.95
2023-02-24T22:09:50.824Z,1.40
2023-02-24T22:14:53.493Z,2.10
2023-02-24T22:19:56.713Z,1.73
2023-02-24T22:24:59.314Z,1.17
2023-02-24T22:30:01.998Z,1.50
2023-02-24T22:35:04.981Z,2.22
2023-02-24T22:40:08.182Z,1.83
2023-02-24T22:45:11.107Z,2.15
2023-02-24T22:50:13.827Z,2.70
2023-02-24T22:55:18.347Z,3.25
2023-02-24T23:00:23.421Z,2.92
2023-02-24T23:05:26.018Z,2.80
2023-02-24T23:10:28.679Z,2.53
2023-02-24T23:15:36.194Z,3.53
2023-02-24T23:20:38.739Z,2.90
2023-02-24T23:25:42.387Z,2.70
2023-02-24T23:30:45.292Z,2.97
2023-02-24T23:35:48.177Z,2.60
2023-02-24T23:40:51.219Z,2.90
2023-02-24T23:45:54.157Z,4.15
2023-02-24T23:50:57.604Z,3.58
2023-02-24T23:56:00.441Z,4.10
